sensor_id;sensor_type;location;lat;lon;timestamp;P1;durP1;ratioP1;P2;durP2;ratioP2
74100;SDS011;62462;52.530;21.682;2023-04-15T00:02:12;12.10;;;7.28;;
74100;SDS011;62462;52.530;21.682;2023-04-15T00:04:46;9.10;;;7.18;;
74100;SDS011;62462;52.530;21.682;2023-04-15T00:07:12;12.25;;;7.10;;
74100;SDS011;62462;52.530;21.682;2023-04-15T00:09:40;10.63;;;7.20;;
74100;SDS011;62462;52.530;21.682;2023-04-15T00:12:06;9.98;;;6.85;;
74100;SDS011;62462;52.530;21.682;2023-04-15T00:14:33;12.98;;;7.43;;
74100;SDS011;62462;52.530;21.682;2023-04-15T00:17:00;10.18;;;6.93;;
74100;SDS011;62462;52.530;21.682;2023-04-15T00:19:27;10.65;;;7.10;;
74100;SDS011;62462;52.530;21.682;2023-04-15T00:21:53;11.68;;;7.65;;
74100;SDS011;62462;52.530;21.682;2023-04-15T00:24:19;9.45;;;6.97;;
74100;SDS011;62462;52.530;21.682;2023-04-15T00:26:45;10.82;;;7.60;;
74100;SDS011;62462;52.530;21.682;2023-04-15T00:29:11;11.32;;;8.15;;
74100;SDS011;62462;52.530;21.682;2023-04-15T00:31:37;9.90;;;7.28;;
74100;SDS011;62462;52.530;21.682;2023-04-15T00:34:03;11.85;;;7.90;;
74100;SDS011;62462;52.530;21.682;2023-04-15T00:36:28;11.30;;;7.47;;
74100;SDS011;62462;52.530;21.682;2023-04-15T00:38:55;9.85;;;7.80;;
74100;SDS011;62462;52.530;21.682;2023-04-15T00:41:21;11.27;;;7.63;;
74100;SDS011;62462;52.530;21.682;2023-04-15T00:43:47;10.88;;;7.93;;
74100;SDS011;62462;52.530;21.682;2023-04-15T00:46:13;11.65;;;7.50;;
74100;SDS011;62462;52.530;21.682;2023-04-15T00:48:41;9.77;;;7.32;;
74100;SDS011;62462;52.530;21.682;2023-04-15T00:51:08;13.60;;;7.47;;
74100;SDS011;62462;52.530;21.682;2023-04-15T00:53:33;9.63;;;7.28;;
74100;SDS011;62462;52.530;21.682;2023-04-15T00:55:59;13.50;;;8.52;;
74100;SDS011;62462;52.530;21.682;2023-04-15T00:58:25;12.65;;;8.95;;
74100;SDS011;62462;52.530;21.682;2023-04-15T01:00:52;14.43;;;7.82;;
74100;SDS011;62462;52.530;21.682;2023-04-15T01:03:19;10.07;;;7.55;;
74100;SDS011;62462;52.530;21.682;2023-04-15T01:05:45;10.68;;;7.60;;
74100;SDS011;62462;52.530;21.682;2023-04-15T01:08:11;9.95;;;7.90;;
74100;SDS011;62462;52.530;21.682;2023-04-15T01:10:37;8.85;;;7.10;;
74100;SDS011;62462;52.530;21.682;2023-04-15T01:13:03;11.63;;;7.80;;
74100;SDS011;62462;52.530;21.682;2023-04-15T01:15:29;12.13;;;7.43;;
74100;SDS011;62462;52.530;21.682;2023-04-15T01:17:56;10.68;;;7.68;;
74100;SDS011;62462;52.530;21.682;2023-04-15T01:20:23;10.82;;;7.88;;
74100;SDS011;62462;52.530;21.682;2023-04-15T01:22:49;12.60;;;9.20;;
74100;SDS011;62462;52.530;21.682;2023-04-15T01:25:18;13.80;;;7.72;;
74100;SDS011;62462;52.530;21.682;2023-04-15T01:27:51;12.55;;;7.90;;
74100;SDS011;62462;52.530;21.682;2023-04-15T01:30:16;10.88;;;7.72;;
74100;SDS011;62462;52.530;21.682;2023-04-15T01:32:42;10.10;;;7.72;;
74100;SDS011;62462;52.530;21.682;2023-04-15T01:35:08;9.77;;;7.18;;
74100;SDS011;62462;52.530;21.682;2023-04-15T01:37:34;13.45;;;7.75;;
74100;SDS011;62462;52.530;21.682;2023-04-15T01:40:01;11.32;;;7.20;;
74100;SDS011;62462;52.530;21.682;2023-04-15T01:42:27;10.15;;;7.05;;
74100;SDS011;62462;52.530;21.682;2023-04-15T01:44:53;11.50;;;8.25;;
74100;SDS011;62462;52.530;21.682;2023-04-15T01:47:18;9.73;;;7.45;;
74100;SDS011;62462;52.530;21.682;2023-04-15T01:49:44;11.30;;;8.18;;
74100;SDS011;62462;52.530;21.682;2023-04-15T01:52:10;11.45;;;7.60;;
74100;SDS011;62462;52.530;21.682;2023-04-15T01:54:36;10.68;;;7.15;;
74100;SDS011;62462;52.530;21.682;2023-04-15T01:57:01;11.65;;;8.13;;
74100;SDS011;62462;52.530;21.682;2023-04-15T01:59:27;11.27;;;7.57;;
74100;SDS011;62462;52.530;21.682;2023-04-15T02:01:55;11.32;;;7.85;;
74100;SDS011;62462;52.530;21.682;2023-04-15T02:04:21;10.65;;;7.05;;
74100;SDS011;62462;52.530;21.682;2023-04-15T02:06:47;11.68;;;7.85;;
74100;SDS011;62462;52.530;21.682;2023-04-15T02:09:13;13.02;;;7.97;;
74100;SDS011;62462;52.530;21.682;2023-04-15T02:11:39;13.55;;;7.65;;
74100;SDS011;62462;52.530;21.682;2023-04-15T02:14:04;14.25;;;7.78;;
74100;SDS011;62462;52.530;21.682;2023-04-15T02:16:30;9.15;;;7.47;;
74100;SDS011;62462;52.530;21.682;2023-04-15T02:18:57;11.68;;;7.50;;
74100;SDS011;62462;52.530;21.682;2023-04-15T02:21:25;10.02;;;7.45;;
74100;SDS011;62462;52.530;21.682;2023-04-15T02:23:51;9.98;;;7.68;;
74100;SDS011;62462;52.530;21.682;2023-04-15T02:26:18;12.70;;;7.95;;
74100;SDS011;62462;52.530;21.682;2023-04-15T02:28:44;11.88;;;7.75;;
74100;SDS011;62462;52.530;21.682;2023-04-15T02:31:11;9.85;;;7.72;;
74100;SDS011;62462;52.530;21.682;2023-04-15T02:33:36;15.65;;;7.65;;
74100;SDS011;62462;52.530;21.682;2023-04-15T02:36:02;11.63;;;7.88;;
74100;SDS011;62462;52.530;21.682;2023-04-15T02:38:28;10.38;;;7.35;;
74100;SDS011;62462;52.530;21.682;2023-04-15T02:40:55;12.25;;;8.10;;
74100;SDS011;62462;52.530;21.682;2023-04-15T02:43:21;10.90;;;8.27;;
74100;SDS011;62462;52.530;21.682;2023-04-15T02:45:47;10.88;;;7.70;;
74100;SDS011;62462;52.530;21.682;2023-04-15T02:48:13;10.98;;;8.15;;
74100;SDS011;62462;52.530;21.682;2023-04-15T02:50:41;11.80;;;8.45;;
74100;SDS011;62462;52.530;21.682;2023-04-15T02:53:07;10.52;;;7.72;;
74100;SDS011;62462;52.530;21.682;2023-04-15T02:55:33;13.30;;;7.68;;
74100;SDS011;62462;52.530;21.682;2023-04-15T02:57:59;10.30;;;7.55;;
74100;SDS011;62462;52.530;21.682;2023-04-15T03:00:25;11.93;;;8.25;;
74100;SDS011;62462;52.530;21.682;2023-04-15T03:02:56;13.35;;;8.38;;
74100;SDS011;62462;52.530;21.682;2023-04-15T03:05:29;12.23;;;7.88;;
74100;SDS011;62462;52.530;21.682;2023-04-15T03:07:54;12.95;;;8.05;;
74100;SDS011;62462;52.530;21.682;2023-04-15T03:10:20;10.45;;;7.90;;
74100;SDS011;62462;52.530;21.682;2023-04-15T03:12:46;12.38;;;8.60;;
74100;SDS011;62462;52.530;21.682;2023-04-15T03:15:12;11.52;;;8.55;;
74100;SDS011;62462;52.530;21.682;2023-04-15T03:17:38;9.85;;;7.53;;
74100;SDS011;62462;52.530;21.682;2023-04-15T03:20:04;10.40;;;7.75;;
74100;SDS011;62462;52.530;21.682;2023-04-15T03:22:31;10.38;;;7.78;;
74100;SDS011;62462;52.530;21.682;2023-04-15T03:24:57;12.90;;;9.00;;
74100;SDS011;62462;52.530;21.682;2023-04-15T03:27:23;15.82;;;7.90;;
74100;SDS011;62462;52.530;21.682;2023-04-15T03:29:49;11.63;;;7.90;;
74100;SDS011;62462;52.530;21.682;2023-04-15T03:32:14;12.98;;;8.27;;
74100;SDS011;62462;52.530;21.682;2023-04-15T03:34:40;12.15;;;8.68;;
74100;SDS011;62462;52.530;21.682;2023-04-15T03:37:06;12.32;;;8.75;;
74100;SDS011;62462;52.530;21.682;2023-04-15T03:39:32;13.05;;;8.63;;
74100;SDS011;62462;52.530;21.682;2023-04-15T03:41:58;12.75;;;8.15;;
74100;SDS011;62462;52.530;21.682;2023-04-15T03:44:25;11.68;;;8.20;;
74100;SDS011;62462;52.530;21.682;2023-04-15T03:46:51;11.02;;;7.50;;
74100;SDS011;62462;52.530;21.682;2023-04-15T03:49:18;10.80;;;8.05;;
74100;SDS011;62462;52.530;21.682;2023-04-15T03:51:44;11.57;;;8.00;;
74100;SDS011;62462;52.530;21.682;2023-04-15T03:54:10;10.65;;;7.53;;
74100;SDS011;62462;52.530;21.682;2023-04-15T03:56:36;12.57;;;7.40;;
74100;SDS011;62462;52.530;21.682;2023-04-15T03:59:02;13.32;;;7.80;;
74100;SDS011;62462;52.530;21.682;2023-04-15T04:01:28;14.32;;;7.60;;
74100;SDS011;62462;52.530;21.682;2023-04-15T04:03:54;10.57;;;7.45;;
74100;SDS011;62462;52.530;21.682;2023-04-15T04:06:20;14.15;;;8.32;;
74100;SDS011;62462;52.530;21.682;2023-04-15T04:08:45;17.25;;;10.25;;
74100;SDS011;62462;52.530;21.682;2023-04-15T04:11:11;13.63;;;9.38;;
74100;SDS011;62462;52.530;21.682;2023-04-15T04:13:37;16.23;;;9.45;;
74100;SDS011;62462;52.530;21.682;2023-04-15T04:16:03;14.40;;;8.60;;
74100;SDS011;62462;52.530;21.682;2023-04-15T04:18:29;14.50;;;8.30;;
74100;SDS011;62462;52.530;21.682;2023-04-15T04:20:58;11.80;;;8.00;;
74100;SDS011;62462;52.530;21.682;2023-04-15T04:23:24;12.65;;;8.15;;
74100;SDS011;62462;52.530;21.682;2023-04-15T04:25:50;15.70;;;8.30;;
74100;SDS011;62462;52.530;21.682;2023-04-15T04:28:16;12.27;;;8.40;;
74100;SDS011;62462;52.530;21.682;2023-04-15T04:30:42;12.48;;;7.93;;
74100;SDS011;62462;52.530;21.682;2023-04-15T04:33:08;10.55;;;7.78;;
74100;SDS011;62462;52.530;21.682;2023-04-15T04:35:33;12.63;;;8.32;;
74100;SDS011;62462;52.530;21.682;2023-04-15T04:38:01;12.40;;;7.80;;
74100;SDS011;62462;52.530;21.682;2023-04-15T04:40:28;12.02;;;7.88;;
74100;SDS011;62462;52.530;21.682;2023-04-15T04:42:53;11.23;;;8.00;;
74100;SDS011;62462;52.530;21.682;2023-04-15T04:45:19;11.40;;;7.82;;
74100;SDS011;62462;52.530;21.682;2023-04-15T04:47:45;11.95;;;8.50;;
74100;SDS011;62462;52.530;21.682;2023-04-15T04:50:11;11.98;;;7.93;;
74100;SDS011;62462;52.530;21.682;2023-04-15T04:52:37;12.68;;;7.90;;
74100;SDS011;62462;52.530;21.682;2023-04-15T04:55:03;11.23;;;8.27;;
74100;SDS011;62462;52.530;21.682;2023-04-15T04:57:29;11.48;;;8.23;;
74100;SDS011;62462;52.530;21.682;2023-04-15T04:59:55;12.10;;;8.10;;
74100;SDS011;62462;52.530;21.682;2023-04-15T05:02:21;11.75;;;8.02;;
74100;SDS011;62462;52.530;21.682;2023-04-15T05:04:47;13.13;;;8.73;;
74100;SDS011;62462;52.530;21.682;2023-04-15T05:07:14;14.80;;;8.82;;
74100;SDS011;62462;52.530;21.682;2023-04-15T05:09:40;11.68;;;8.15;;
74100;SDS011;62462;52.530;21.682;2023-04-15T05:12:06;14.85;;;8.35;;
74100;SDS011;62462;52.530;21.682;2023-04-15T05:14:33;13.45;;;8.02;;
74100;SDS011;62462;52.530;21.682;2023-04-15T05:16:58;15.10;;;8.70;;
74100;SDS011;62462;52.530;21.682;2023-04-15T05:19:24;18.90;;;8.95;;
74100;SDS011;62462;52.530;21.682;2023-04-15T05:21:50;13.75;;;8.50;;
74100;SDS011;62462;52.530;21.682;2023-04-15T05:24:16;13.55;;;8.25;;
74100;SDS011;62462;52.530;21.682;2023-04-15T05:26:42;12.68;;;8.40;;
74100;SDS011;62462;52.530;21.682;2023-04-15T05:29:07;12.35;;;8.25;;
74100;SDS011;62462;52.530;21.682;2023-04-15T05:31:33;14.07;;;9.60;;
74100;SDS011;62462;52.530;21.682;2023-04-15T05:33:59;14.85;;;8.73;;
74100;SDS011;62462;52.530;21.682;2023-04-15T05:36:25;14.32;;;9.38;;
74100;SDS011;62462;52.530;21.682;2023-04-15T05:38:51;16.20;;;8.82;;
74100;SDS011;62462;52.530;21.682;2023-04-15T05:41:17;17.27;;;10.07;;
74100;SDS011;62462;52.530;21.682;2023-04-15T05:43:43;17.25;;;9.52;;
74100;SDS011;62462;52.530;21.682;2023-04-15T05:46:08;13.38;;;9.15;;
74100;SDS011;62462;52.530;21.682;2023-04-15T05:48:34;14.13;;;8.68;;
74100;SDS011;62462;52.530;21.682;2023-04-15T05:51:00;15.50;;;9.18;;
74100;SDS011;62462;52.530;21.682;2023-04-15T05:53:25;14.25;;;8.85;;
74100;SDS011;62462;52.530;21.682;2023-04-15T05:55:51;15.07;;;8.90;;
74100;SDS011;62462;52.530;21.682;2023-04-15T05:58:17;15.13;;;8.65;;
74100;SDS011;62462;52.530;21.682;2023-04-15T06:00:42;15.13;;;9.30;;
74100;SDS011;62462;52.530;21.682;2023-04-15T06:03:09;16.92;;;10.00;;
74100;SDS011;62462;52.530;21.682;2023-04-15T06:05:35;14.50;;;10.15;;
74100;SDS011;62462;52.530;21.682;2023-04-15T06:08:01;14.52;;;9.05;;
74100;SDS011;62462;52.530;21.682;2023-04-15T06:10:27;15.18;;;8.98;;
74100;SDS011;62462;52.530;21.682;2023-04-15T06:12:53;13.60;;;8.93;;
74100;SDS011;62462;52.530;21.682;2023-04-15T06:15:18;17.73;;;9.52;;
74100;SDS011;62462;52.530;21.682;2023-04-15T06:17:44;13.88;;;9.35;;
74100;SDS011;62462;52.530;21.682;2023-04-15T06:20:10;14.32;;;8.48;;
74100;SDS011;62462;52.530;21.682;2023-04-15T06:22:36;13.32;;;8.07;;
74100;SDS011;62462;52.530;21.682;2023-04-15T06:25:05;11.15;;;8.00;;
74100;SDS011;62462;52.530;21.682;2023-04-15T06:27:33;18.83;;;10.02;;
74100;SDS011;62462;52.530;21.682;2023-04-15T06:29:58;13.57;;;8.57;;
74100;SDS011;62462;52.530;21.682;2023-04-15T06:32:24;15.35;;;8.63;;
74100;SDS011;62462;52.530;21.682;2023-04-15T06:34:50;12.38;;;8.77;;
74100;SDS011;62462;52.530;21.682;2023-04-15T06:37:16;13.90;;;8.77;;
74100;SDS011;62462;52.530;21.682;2023-04-15T06:39:42;13.23;;;7.75;;
74100;SDS011;62462;52.530;21.682;2023-04-15T06:42:09;11.82;;;8.18;;
74100;SDS011;62462;52.530;21.682;2023-04-15T06:44:36;13.63;;;7.85;;
74100;SDS011;62462;52.530;21.682;2023-04-15T06:47:02;15.13;;;8.80;;
74100;SDS011;62462;52.530;21.682;2023-04-15T06:49:28;12.77;;;8.13;;
74100;SDS011;62462;52.530;21.682;2023-04-15T06:51:53;11.40;;;8.10;;
74100;SDS011;62462;52.530;21.682;2023-04-15T06:54:19;13.88;;;8.75;;
74100;SDS011;62462;52.530;21.682;2023-04-15T06:56:45;12.77;;;8.00;;
74100;SDS011;62462;52.530;21.682;2023-04-15T06:59:11;11.82;;;7.90;;
74100;SDS011;62462;52.530;21.682;2023-04-15T07:01:39;12.75;;;7.55;;
74100;SDS011;62462;52.530;21.682;2023-04-15T07:04:05;13.15;;;8.23;;
74100;SDS011;62462;52.530;21.682;2023-04-15T07:06:31;12.63;;;7.57;;
74100;SDS011;62462;52.530;21.682;2023-04-15T07:08:57;13.35;;;7.65;;
74100;SDS011;62462;52.530;21.682;2023-04-15T07:11:24;9.27;;;7.03;;
74100;SDS011;62462;52.530;21.682;2023-04-15T07:13:50;12.80;;;7.35;;
74100;SDS011;62462;52.530;21.682;2023-04-15T07:16:16;11.15;;;7.78;;
74100;SDS011;62462;52.530;21.682;2023-04-15T07:18:42;13.30;;;7.72;;
74100;SDS011;62462;52.530;21.682;2023-04-15T07:21:08;12.25;;;8.02;;
74100;SDS011;62462;52.530;21.682;2023-04-15T07:23:34;12.85;;;8.07;;
74100;SDS011;62462;52.530;21.682;2023-04-15T07:25:59;10.88;;;8.00;;
74100;SDS011;62462;52.530;21.682;2023-04-15T07:28:25;10.27;;;7.80;;
74100;SDS011;62462;52.530;21.682;2023-04-15T07:30:51;9.93;;;6.40;;
74100;SDS011;62462;52.530;21.682;2023-04-15T07:33:17;12.07;;;6.78;;
74100;SDS011;62462;52.530;21.682;2023-04-15T07:35:43;12.70;;;7.68;;
74100;SDS011;62462;52.530;21.682;2023-04-15T07:38:09;9.48;;;6.20;;
74100;SDS011;62462;52.530;21.682;2023-04-15T07:40:37;10.00;;;6.28;;
74100;SDS011;62462;52.530;21.682;2023-04-15T07:43:03;9.38;;;6.28;;
74100;SDS011;62462;52.530;21.682;2023-04-15T07:45:30;12.07;;;7.28;;
74100;SDS011;62462;52.530;21.682;2023-04-15T07:47:56;9.77;;;6.55;;
74100;SDS011;62462;52.530;21.682;2023-04-15T07:50:22;10.32;;;7.10;;
74100;SDS011;62462;52.530;21.682;2023-04-15T07:52:48;8.90;;;6.45;;
74100;SDS011;62462;52.530;21.682;2023-04-15T07:55:15;13.07;;;7.57;;
74100;SDS011;62462;52.530;21.682;2023-04-15T07:57:45;12.02;;;7.53;;
74100;SDS011;62462;52.530;21.682;2023-04-15T08:00:11;12.10;;;6.88;;
74100;SDS011;62462;52.530;21.682;2023-04-15T08:02:37;9.15;;;6.43;;
74100;SDS011;62462;52.530;21.682;2023-04-15T08:05:04;10.90;;;6.40;;
74100;SDS011;62462;52.530;21.682;2023-04-15T08:07:30;11.25;;;7.32;;
74100;SDS011;62462;52.530;21.682;2023-04-15T08:09:55;10.65;;;6.32;;
74100;SDS011;62462;52.530;21.682;2023-04-15T08:12:22;13.10;;;7.35;;
74100;SDS011;62462;52.530;21.682;2023-04-15T08:14:49;10.70;;;6.97;;
74100;SDS011;62462;52.530;21.682;2023-04-15T08:17:15;10.73;;;7.07;;
74100;SDS011;62462;52.530;21.682;2023-04-15T08:19:40;13.27;;;6.45;;
74100;SDS011;62462;52.530;21.682;2023-04-15T08:22:07;10.32;;;6.30;;
74100;SDS011;62462;52.530;21.682;2023-04-15T08:24:32;11.35;;;6.65;;
74100;SDS011;62462;52.530;21.682;2023-04-15T08:26:58;7.85;;;5.45;;
74100;SDS011;62462;52.530;21.682;2023-04-15T08:29:28;12.90;;;7.75;;
74100;SDS011;62462;52.530;21.682;2023-04-15T08:31:53;13.73;;;7.43;;
74100;SDS011;62462;52.530;21.682;2023-04-15T08:34:19;21.77;;;10.20;;
74100;SDS011;62462;52.530;21.682;2023-04-15T08:36:45;20.05;;;8.75;;
74100;SDS011;62462;52.530;21.682;2023-04-15T08:39:21;12.48;;;6.10;;
74100;SDS011;62462;52.530;21.682;2023-04-15T08:42:16;10.75;;;5.75;;
74100;SDS011;62462;52.530;21.682;2023-04-15T08:44:44;11.65;;;5.78;;
74100;SDS011;62462;52.530;21.682;2023-04-15T08:47:12;10.05;;;6.22;;
74100;SDS011;62462;52.530;21.682;2023-04-15T08:49:41;14.00;;;7.30;;
74100;SDS011;62462;52.530;21.682;2023-04-15T08:52:08;12.20;;;7.15;;
74100;SDS011;62462;52.530;21.682;2023-04-15T08:54:34;8.30;;;5.68;;
74100;SDS011;62462;52.530;21.682;2023-04-15T08:57:03;15.25;;;7.97;;
74100;SDS011;62462;52.530;21.682;2023-04-15T08:59:29;12.55;;;7.00;;
74100;SDS011;62462;52.530;21.682;2023-04-15T09:01:56;8.02;;;5.32;;
74100;SDS011;62462;52.530;21.682;2023-04-15T09:04:22;11.45;;;6.25;;
74100;SDS011;62462;52.530;21.682;2023-04-15T09:06:48;10.43;;;6.47;;
74100;SDS011;62462;52.530;21.682;2023-04-15T09:09:13;7.97;;;5.05;;
74100;SDS011;62462;52.530;21.682;2023-04-15T09:11:39;11.10;;;5.85;;
74100;SDS011;62462;52.530;21.682;2023-04-15T09:14:06;9.07;;;4.97;;
74100;SDS011;62462;52.530;21.682;2023-04-15T09:16:54;14.73;;;7.50;;
74100;SDS011;62462;52.530;21.682;2023-04-15T09:19:22;11.07;;;6.45;;
74100;SDS011;62462;52.530;21.682;2023-04-15T09:21:50;9.48;;;5.78;;
74100;SDS011;62462;52.530;21.682;2023-04-15T09:24:17;6.38;;;4.50;;
74100;SDS011;62462;52.530;21.682;2023-04-15T09:26:43;8.82;;;5.60;;
74100;SDS011;62462;52.530;21.682;2023-04-15T09:29:09;8.02;;;5.00;;
74100;SDS011;62462;52.530;21.682;2023-04-15T09:31:39;11.05;;;7.22;;
74100;SDS011;62462;52.530;21.682;2023-04-15T09:34:05;6.65;;;4.68;;
74100;SDS011;62462;52.530;21.682;2023-04-15T09:36:50;7.32;;;4.78;;
74100;SDS011;62462;52.530;21.682;2023-04-15T09:39:18;7.10;;;4.68;;
74100;SDS011;62462;52.530;21.682;2023-04-15T09:41:44;8.80;;;5.63;;
74100;SDS011;62462;52.530;21.682;2023-04-15T09:44:22;8.90;;;6.18;;
74100;SDS011;62462;52.530;21.682;2023-04-15T09:46:48;7.30;;;4.90;;
74100;SDS011;62462;52.530;21.682;2023-04-15T09:49:14;5.82;;;4.70;;
74100;SDS011;62462;52.530;21.682;2023-04-15T09:51:43;8.88;;;6.07;;
74100;SDS011;62462;52.530;21.682;2023-04-15T09:54:08;10.20;;;6.22;;
74100;SDS011;62462;52.530;21.682;2023-04-15T09:56:34;9.43;;;5.80;;
74100;SDS011;62462;52.530;21.682;2023-04-15T09:59:10;8.07;;;5.20;;
74100;SDS011;62462;52.530;21.682;2023-04-15T10:01:36;7.32;;;5.10;;
74100;SDS011;62462;52.530;21.682;2023-04-15T10:04:04;7.43;;;4.97;;
74100;SDS011;62462;52.530;21.682;2023-04-15T10:06:31;9.13;;;5.43;;
74100;SDS011;62462;52.530;21.682;2023-04-15T10:08:57;7.82;;;5.40;;
74100;SDS011;62462;52.530;21.682;2023-04-15T10:11:27;8.98;;;6.45;;
74100;SDS011;62462;52.530;21.682;2023-04-15T10:13:53;10.05;;;6.07;;
74100;SDS011;62462;52.530;21.682;2023-04-15T10:16:21;9.25;;;5.40;;
74100;SDS011;62462;52.530;21.682;2023-04-15T10:18:53;8.68;;;5.07;;
74100;SDS011;62462;52.530;21.682;2023-04-15T10:21:20;7.55;;;5.07;;
74100;SDS011;62462;52.530;21.682;2023-04-15T10:23:47;7.40;;;5.10;;
74100;SDS011;62462;52.530;21.682;2023-04-15T10:26:14;9.23;;;5.60;;
74100;SDS011;62462;52.530;21.682;2023-04-15T10:28:41;7.90;;;6.15;;
74100;SDS011;62462;52.530;21.682;2023-04-15T10:31:11;7.57;;;5.53;;
74100;SDS011;62462;52.530;21.682;2023-04-15T10:33:39;33.95;;;12.25;;
74100;SDS011;62462;52.530;21.682;2023-04-15T10:36:06;10.82;;;6.40;;
74100;SDS011;62462;52.530;21.682;2023-04-15T10:38:39;15.98;;;9.00;;
74100;SDS011;62462;52.530;21.682;2023-04-15T10:43:55;7.20;;;5.07;;
74100;SDS011;62462;52.530;21.682;2023-04-15T10:51:37;7.13;;;4.93;;
74100;SDS011;62462;52.530;21.682;2023-04-15T10:54:14;8.63;;;5.88;;
74100;SDS011;62462;52.530;21.682;2023-04-15T10:56:42;15.38;;;8.15;;
74100;SDS011;62462;52.530;21.682;2023-04-15T10:59:15;5.32;;;3.75;;
74100;SDS011;62462;52.530;21.682;2023-04-15T11:01:52;12.40;;;6.90;;
74100;SDS011;62462;52.530;21.682;2023-04-15T11:10:55;8.88;;;4.82;;
74100;SDS011;62462;52.530;21.682;2023-04-15T11:12:57;8.20;;;4.80;;
74100;SDS011;62462;52.530;21.682;2023-04-15T11:15:37;11.25;;;6.10;;
74100;SDS011;62462;52.530;21.682;2023-04-15T11:18:10;13.10;;;5.63;;
74100;SDS011;62462;52.530;21.682;2023-04-15T11:20:36;10.88;;;6.28;;
74100;SDS011;62462;52.530;21.682;2023-04-15T11:23:03;7.13;;;4.38;;
74100;SDS011;62462;52.530;21.682;2023-04-15T11:25:29;10.48;;;5.75;;
74100;SDS011;62462;52.530;21.682;2023-04-15T11:27:57;6.07;;;3.67;;
74100;SDS011;62462;52.530;21.682;2023-04-15T11:30:25;9.68;;;5.00;;
74100;SDS011;62462;52.530;21.682;2023-04-15T11:32:54;5.57;;;4.10;;
74100;SDS011;62462;52.530;21.682;2023-04-15T11:35:22;8.57;;;4.30;;
74100;SDS011;62462;52.530;21.682;2023-04-15T11:37:48;7.97;;;4.13;;
74100;SDS011;62462;52.530;21.682;2023-04-15T11:40:14;8.93;;;4.72;;
74100;SDS011;62462;52.530;21.682;2023-04-15T11:42:45;11.60;;;5.40;;
74100;SDS011;62462;52.530;21.682;2023-04-15T11:45:12;7.40;;;4.68;;
74100;SDS011;62462;52.530;21.682;2023-04-15T11:47:39;12.55;;;4.90;;
74100;SDS011;62462;52.530;21.682;2023-04-15T11:50:18;13.57;;;6.15;;
74100;SDS011;62462;52.530;21.682;2023-04-15T11:52:54;11.98;;;7.72;;
74100;SDS011;62462;52.530;21.682;2023-04-15T11:55:21;7.63;;;4.70;;
74100;SDS011;62462;52.530;21.682;2023-04-15T11:57:49;11.90;;;5.78;;
74100;SDS011;62462;52.530;21.682;2023-04-15T12:00:15;13.93;;;6.50;;
74100;SDS011;62462;52.530;21.682;2023-04-15T12:02:41;6.38;;;3.60;;
74100;SDS011;62462;52.530;21.682;2023-04-15T12:05:08;8.27;;;4.05;;
74100;SDS011;62462;52.530;21.682;2023-04-15T12:10:23;41.13;;;19.55;;
74100;SDS011;62462;52.530;21.682;2023-04-15T12:12:51;51.22;;;21.70;;
74100;SDS011;62462;52.530;21.682;2023-04-15T12:15:17;5.82;;;3.40;;
74100;SDS011;62462;52.530;21.682;2023-04-15T12:17:47;13.50;;;6.40;;
74100;SDS011;62462;52.530;21.682;2023-04-15T12:20:12;10.00;;;5.00;;
74100;SDS011;62462;52.530;21.682;2023-04-15T12:22:38;7.30;;;4.10;;
74100;SDS011;62462;52.530;21.682;2023-04-15T12:25:04;9.05;;;5.45;;
74100;SDS011;62462;52.530;21.682;2023-04-15T12:27:30;4.97;;;3.15;;
74100;SDS011;62462;52.530;21.682;2023-04-15T12:30:05;6.90;;;2.95;;
74100;SDS011;62462;52.530;21.682;2023-04-15T12:32:34;5.70;;;3.00;;
74100;SDS011;62462;52.530;21.682;2023-04-15T12:35:00;10.57;;;3.53;;
74100;SDS011;62462;52.530;21.682;2023-04-15T12:37:26;9.20;;;3.47;;
74100;SDS011;62462;52.530;21.682;2023-04-15T12:39:51;5.78;;;3.67;;
74100;SDS011;62462;52.530;21.682;2023-04-15T12:42:18;4.30;;;2.80;;
74100;SDS011;62462;52.530;21.682;2023-04-15T12:44:44;4.53;;;2.63;;
74100;SDS011;62462;52.530;21.682;2023-04-15T12:47:11;4.63;;;2.65;;
74100;SDS011;62462;52.530;21.682;2023-04-15T12:49:37;4.20;;;2.45;;
74100;SDS011;62462;52.530;21.682;2023-04-15T12:52:03;2.80;;;1.75;;
74100;SDS011;62462;52.530;21.682;2023-04-15T12:54:29;2.55;;;1.60;;
74100;SDS011;62462;52.530;21.682;2023-04-15T12:56:56;3.50;;;2.47;;
74100;SDS011;62462;52.530;21.682;2023-04-15T12:59:23;2.88;;;1.48;;
74100;SDS011;62462;52.530;21.682;2023-04-15T13:01:49;2.88;;;1.70;;
74100;SDS011;62462;52.530;21.682;2023-04-15T13:04:16;5.25;;;2.30;;
74100;SDS011;62462;52.530;21.682;2023-04-15T13:06:42;2.72;;;1.92;;
74100;SDS011;62462;52.530;21.682;2023-04-15T13:09:08;2.40;;;1.50;;
74100;SDS011;62462;52.530;21.682;2023-04-15T13:11:33;3.15;;;2.08;;
74100;SDS011;62462;52.530;21.682;2023-04-15T13:14:01;3.70;;;2.10;;
74100;SDS011;62462;52.530;21.682;2023-04-15T13:16:28;2.17;;;1.50;;
74100;SDS011;62462;52.530;21.682;2023-04-15T13:18:54;2.67;;;1.35;;
74100;SDS011;62462;52.530;21.682;2023-04-15T13:21:20;3.03;;;1.35;;
74100;SDS011;62462;52.530;21.682;2023-04-15T13:23:47;3.28;;;1.30;;
74100;SDS011;62462;52.530;21.682;2023-04-15T13:26:14;2.55;;;1.38;;
74100;SDS011;62462;52.530;21.682;2023-04-15T13:28:41;2.00;;;1.30;;
74100;SDS011;62462;52.530;21.682;2023-04-15T13:31:08;3.42;;;1.33;;
74100;SDS011;62462;52.530;21.682;2023-04-15T13:33:34;1.40;;;0.98;;
74100;SDS011;62462;52.530;21.682;2023-04-15T13:36:00;3.03;;;1.70;;
74100;SDS011;62462;52.530;21.682;2023-04-15T13:38:26;7.20;;;3.75;;
74100;SDS011;62462;52.530;21.682;2023-04-15T13:40:52;6.63;;;2.80;;
74100;SDS011;62462;52.530;21.682;2023-04-15T13:43:18;3.30;;;2.08;;
74100;SDS011;62462;52.530;21.682;2023-04-15T13:45:45;7.97;;;3.30;;
74100;SDS011;62462;52.530;21.682;2023-04-15T13:48:11;7.35;;;3.17;;
74100;SDS011;62462;52.530;21.682;2023-04-15T13:50:37;5.70;;;2.75;;
74100;SDS011;62462;52.530;21.682;2023-04-15T13:53:03;4.32;;;2.05;;
74100;SDS011;62462;52.530;21.682;2023-04-15T13:55:28;2.30;;;1.40;;
74100;SDS011;62462;52.530;21.682;2023-04-15T13:57:55;5.07;;;2.17;;
74100;SDS011;62462;52.530;21.682;2023-04-15T14:00:21;5.25;;;2.80;;
74100;SDS011;62462;52.530;21.682;2023-04-15T14:02:47;3.75;;;2.03;;
74100;SDS011;62462;52.530;21.682;2023-04-15T14:05:13;6.32;;;2.85;;
74100;SDS011;62462;52.530;21.682;2023-04-15T14:07:38;12.77;;;6.03;;
74100;SDS011;62462;52.530;21.682;2023-04-15T14:10:05;13.30;;;6.10;;
74100;SDS011;62462;52.530;21.682;2023-04-15T14:12:31;8.13;;;3.88;;
74100;SDS011;62462;52.530;21.682;2023-04-15T14:14:57;17.15;;;7.72;;
74100;SDS011;62462;52.530;21.682;2023-04-15T14:17:23;27.83;;;10.27;;
74100;SDS011;62462;52.530;21.682;2023-04-15T14:19:48;18.77;;;9.15;;
74100;SDS011;62462;52.530;21.682;2023-04-15T14:22:14;17.10;;;7.63;;
74100;SDS011;62462;52.530;21.682;2023-04-15T14:24:42;15.38;;;6.20;;
74100;SDS011;62462;52.530;21.682;2023-04-15T14:27:08;9.02;;;4.20;;
74100;SDS011;62462;52.530;21.682;2023-04-15T14:29:36;27.98;;;11.82;;
74100;SDS011;62462;52.530;21.682;2023-04-15T14:32:02;6.38;;;4.07;;
74100;SDS011;62462;52.530;21.682;2023-04-15T14:34:28;4.80;;;2.85;;
74100;SDS011;62462;52.530;21.682;2023-04-15T14:36:54;6.50;;;3.50;;
74100;SDS011;62462;52.530;21.682;2023-04-15T14:39:20;8.23;;;3.60;;
74100;SDS011;62462;52.530;21.682;2023-04-15T14:41:46;9.90;;;5.97;;